Time;durP1;ratioP1;P1;durP2;ratioP2;P2;SDS_P1;SDS_P2;PMS_P1;PMS_P2;Temp;Humidity;BMP_temperature;BMP_pressure;BME280_temperature;BME280_humidity;BME280_pressure;Samples;Min_cycle;Max_cycle;Signal;HPM_P1;HPM_P2
2022/10/12 00:01:18;;;;;;;1.95;1.05;;;8.20;99.90;;;;;;6048038;29;20444;-67
2022/10/12 00:04:23;;;;;;;2.35;0.98;;;8.20;99.90;;;;;;6047716;29;20632;-67
2022/10/12 00:07:28;;;;;;;5.30;1.00;;;8.10;99.90;;;;;;6047908;29;20306;-67
2022/10/12 00:10:33;;;;;;;1.08;1.00;;;8.10;99.90;;;;;;6038756;29;20586;-67
2022/10/12 00:13:38;;;;;;;0.80;0.80;;;8.10;99.90;;;;;;6024806;29;20302;-66
2022/10/12 00:16:44;;;;;;;3.85;1.30;;;8.10;99.90;;;;;;6024819;29;20290;-67
2022/10/12 00:19:50;;;;;;;1.75;1.42;;;8.00;99.90;;;;;;6024793;29;20595;-67
2022/10/12 00:22:55;;;;;;;1.10;1.10;;;8.10;99.90;;;;;;6024671;29;20565;-67
2022/10/12 00:26:02;;;;;;;1.48;1.20;;;8.10;99.90;;;;;;6024984;29;20282;-65
2022/10/12 00:29:07;;;;;;;3.90;1.30;;;8.10;99.90;;;;;;6024340;29;20298;-66
2022/10/12 00:32:14;;;;;;;2.50;1.30;;;8.10;99.90;;;;;;6024089;29;20615;-67
2022/10/12 00:35:18;;;;;;;2.08;1.30;;;8.00;99.90;;;;;;6024309;29;20462;-67
2022/10/12 00:38:23;;;;;;;2.80;1.30;;;7.90;99.90;;;;;;6024094;29;20303;-66
2022/10/12 00:41:32;;;;;;;5.35;1.05;;;7.90;99.90;;;;;;6024610;29;20278;-66
2022/10/12 00:44:43;;;;;;;5.10;1.50;;;7.90;99.90;;;;;;6024373;29;20310;-66
2022/10/12 00:47:52;;;;;;;1.20;1.20;;;7.90;99.90;;;;;;6023634;29;20425;-65
2022/10/12 00:51:00;;;;;;;3.20;1.20;;;7.90;99.90;;;;;;6024160;29;20594;-66
2022/10/12 00:54:09;;;;;;;2.78;1.10;;;7.80;99.90;;;;;;6024126;29;20298;-67
2022/10/12 00:57:16;;;;;;;5.85;1.00;;;7.80;99.90;;;;;;6024432;29;20275;-67
2022/10/12 01:00:21;;;;;;;1.00;1.00;;;7.70;99.90;;;;;;6024058;29;20642;-67
2022/10/12 01:03:28;;;;;;;0.88;0.88;;;7.70;99.90;;;;;;6024069;29;20302;-67
2022/10/12 01:06:33;;;;;;;2.58;1.10;;;7.60;99.90;;;;;;6024331;29;20274;-67
2022/10/12 01:09:38;;;;;;;4.13;1.17;;;7.70;99.90;;;;;;6025092;29;20298;-67
2022/10/12 01:12:44;;;;;;;1.25;0.88;;;7.70;99.90;;;;;;6046594;29;20293;-67
2022/10/12 01:15:54;;;;;;;1.95;1.10;;;7.70;99.90;;;;;;6047020;29;20277;-66
2022/10/12 01:19:15;;;;;;;1.52;1.33;;;7.70;99.90;;;;;;6046780;29;20302;-66
2022/10/12 01:22:21;;;;;;;2.90;1.10;;;7.70;99.90;;;;;;6047222;29;20281;-66
2022/10/12 01:25:46;;;;;;;0.80;0.80;;;7.60;99.90;;;;;;6046737;29;20306;-66
2022/10/12 01:29:03;;;;;;;0.85;0.85;;;7.50;99.90;;;;;;6046601;29;20310;-66
2022/10/12 01:32:15;;;;;;;1.20;1.10;;;7.50;99.90;;;;;;6046757;29;20294;-66
2022/10/12 01:35:25;;;;;;;2.20;0.95;;;7.50;99.90;;;;;;6046665;29;20322;-66
2022/10/12 01:38:42;;;;;;;1.35;1.02;;;7.40;99.90;;;;;;6046941;29;20590;-67
2022/10/12 01:41:49;;;;;;;0.90;0.90;;;7.20;99.90;;;;;;6047173;29;20279;-66
2022/10/12 01:45:03;;;;;;;1.20;1.00;;;7.30;99.90;;;;;;6049111;29;20321;-67
2022/10/12 01:48:13;;;;;;;1.38;1.00;;;7.40;99.90;;;;;;6050885;29;20297;-66
2022/10/12 01:51:27;;;;;;;2.65;1.02;;;7.40;99.90;;;;;;6051136;29;20289;-67
2022/10/12 01:54:46;;;;;;;3.92;1.00;;;7.40;99.90;;;;;;6050731;29;20305;-67
2022/10/12 01:58:07;;;;;;;2.05;1.02;;;7.30;99.90;;;;;;6064733;29;20301;-67
2022/10/12 02:01:21;;;;;;;1.00;1.00;;;7.30;99.90;;;;;;6050609;29;20274;-67
2022/10/12 02:04:36;;;;;;;1.10;1.10;;;7.40;99.90;;;;;;6050477;29;20306;-67
2022/10/12 02:07:46;;;;;;;1.08;1.08;;;7.30;99.90;;;;;;6050271;29;20307;-67
2022/10/12 02:10:55;;;;;;;1.13;1.13;;;7.30;99.90;;;;;;6039989;29;20266;-67
2022/10/12 02:14:06;;;;;;;1.30;1.20;;;7.30;99.90;;;;;;6026838;29;20606;-66
2022/10/12 02:17:15;;;;;;;1.25;1.05;;;7.30;99.90;;;;;;6027400;29;20276;-67
2022/10/12 02:20:23;;;;;;;3.78;1.00;;;7.20;99.90;;;;;;6027153;29;20310;-67
2022/10/12 02:23:29;;;;;;;1.08;1.08;;;7.30;99.90;;;;;;6026774;29;20314;-66
2022/10/12 02:26:37;;;;;;;1.17;1.10;;;7.20;99.90;;;;;;6027431;29;20274;-66
2022/10/12 02:29:44;;;;;;;1.33;1.33;;;7.20;99.90;;;;;;6026722;29;20298;-66
2022/10/12 02:32:54;;;;;;;4.13;1.02;;;7.20;99.90;;;;;;6026785;29;20444;-66
2022/10/12 02:36:05;;;;;;;2.95;1.15;;;7.20;99.90;;;;;;6027365;29;20279;-66
2022/10/12 02:39:16;;;;;;;2.00;1.27;;;7.20;99.90;;;;;;6026945;29;20311;-66
2022/10/12 02:42:23;;;;;;;8.27;1.20;;;7.10;99.90;;;;;;6026995;29;20286;-66
2022/10/12 02:45:29;;;;;;;1.30;0.95;;;7.00;99.90;;;;;;6040511;29;20299;-66
2022/10/12 02:48:34;;;;;;;1.10;1.10;;;7.00;99.90;;;;;;6026321;29;20294;-66
2022/10/12 02:51:41;;;;;;;2.53;1.25;;;7.00;99.90;;;;;;6026746;29;20298;-67
2022/10/12 02:54:46;;;;;;;3.97;1.30;;;7.00;99.90;;;;;;6025014;29;20314;-66
2022/10/12 02:57:51;;;;;;;1.20;1.20;;;6.90;99.90;;;;;;6025820;29;20314;-66
2022/10/12 03:00:56;;;;;;;1.05;1.05;;;6.90;99.90;;;;;;6026819;29;20456;-66
2022/10/12 03:04:01;;;;;;;6.60;1.35;;;6.80;99.90;;;;;;6034219;29;20301;-67
2022/10/12 03:07:07;;;;;;;1.27;1.27;;;6.90;99.90;;;;;;6038105;29;20286;-67
2022/10/12 03:10:12;;;;;;;1.10;1.10;;;6.70;99.90;;;;;;6028330;29;20318;-67
2022/10/12 03:13:18;;;;;;;1.38;1.38;;;6.70;99.90;;;;;;6048569;29;20297;-67
2022/10/12 03:16:23;;;;;;;1.20;1.20;;;6.70;99.90;;;;;;6049008;29;20294;-67
2022/10/12 03:19:28;;;;;;;1.00;1.00;;;6.70;99.90;;;;;;6040859;29;20598;-66
2022/10/12 03:22:35;;;;;;;1.02;1.02;;;6.60;99.90;;;;;;6025901;29;20287;-67
2022/10/12 03:25:41;;;;;;;2.03;1.10;;;6.60;99.90;;;;;;6026156;29;20465;-66
2022/10/12 03:28:46;;;;;;;5.40;1.33;;;6.70;99.90;;;;;;6025534;29;20302;-66
2022/10/12 03:31:51;;;;;;;7.43;1.10;;;6.80;99.90;;;;;;6025497;29;20302;-66
2022/10/12 03:34:56;;;;;;;4.57;1.30;;;6.80;99.90;;;;;;6025616;29;20481;-66
2022/10/12 03:38:02;;;;;;;3.20;1.38;;;6.90;99.90;;;;;;6044089;29;20298;-66
2022/10/12 03:41:09;;;;;;;4.03;1.30;;;6.90;99.90;;;;;;6048551;29;20277;-66
2022/10/12 03:44:14;;;;;;;2.70;1.38;;;6.80;99.90;;;;;;6048060;29;20301;-66
2022/10/12 03:47:19;;;;;;;1.58;1.17;;;6.80;99.90;;;;;;6048828;29;20273;-67
2022/10/12 03:50:23;;;;;;;3.88;1.55;;;6.80;99.90;;;;;;6047193;29;20282;-67
2022/10/12 03:53:30;;;;;;;1.40;1.30;;;6.70;99.90;;;;;;6047958;29;20590;-67
2022/10/12 03:56:36;;;;;;;3.10;1.30;;;6.80;99.90;;;;;;6048200;29;20394;-67
2022/10/12 03:59:40;;;;;;;1.30;1.30;;;6.70;99.90;;;;;;6048046;29;20301;-66
2022/10/12 04:02:45;;;;;;;7.38;1.20;;;6.70;99.90;;;;;;6047708;29;20314;-66
2022/10/12 04:05:54;;;;;;;6.07;1.40;;;6.80;99.90;;;;;;6048175;29;20281;-66
2022/10/12 04:09:00;;;;;;;2.63;1.50;;;6.80;99.90;;;;;;6047431;29;20470;-67
2022/10/12 04:12:06;;;;;;;3.30;1.50;;;6.70;99.90;;;;;;6029091;29;20299;-66
2022/10/12 04:15:11;;;;;;;1.38;1.30;;;6.70;99.90;;;;;;6027394;29;20266;-66
2022/10/12 04:18:17;;;;;;;3.35;1.25;;;6.70;99.90;;;;;;6039167;29;20638;-66
2022/10/12 04:21:22;;;;;;;3.95;1.50;;;6.70;99.90;;;;;;6026364;29;20593;-66
2022/10/12 04:24:28;;;;;;;1.30;1.27;;;6.80;99.90;;;;;;6036902;29;20447;-66
2022/10/12 04:27:33;;;;;;;1.50;1.45;;;6.70;99.90;;;;;;6047448;29;20306;-66
2022/10/12 04:30:39;;;;;;;1.65;1.27;;;6.70;99.90;;;;;;6047379;29;20298;-66
2022/10/12 04:33:44;;;;;;;1.40;1.30;;;6.70;99.90;;;;;;6030215;29;20286;-67
2022/10/12 04:36:49;;;;;;;3.63;1.27;;;6.70;99.90;;;;;;6024192;29;20618;-67
2022/10/12 04:39:55;;;;;;;1.48;1.15;;;6.60;99.90;;;;;;6024260;29;20278;-66
2022/10/12 04:43:00;;;;;;;1.27;1.27;;;6.60;99.90;;;;;;6024430;29;20307;-66
2022/10/12 04:46:05;;;;;;;1.30;1.20;;;6.60;99.90;;;;;;6024272;29;20310;-67
2022/10/12 04:49:10;;;;;;;1.35;1.35;;;6.70;99.90;;;;;;6029698;29;20262;-66
2022/10/12 04:52:15;;;;;;;5.05;1.42;;;6.60;99.90;;;;;;6046958;29;20302;-67
2022/10/12 04:55:21;;;;;;;1.38;1.30;;;6.60;99.90;;;;;;6046654;29;20273;-67
2022/10/12 04:58:26;;;;;;;4.78;1.45;;;6.60;99.90;;;;;;6047176;29;20274;-66
2022/10/12 05:01:31;;;;;;;7.32;1.70;;;6.60;99.90;;;;;;6046993;29;20305;-67
2022/10/12 05:04:36;;;;;;;1.92;1.75;;;6.60;99.90;;;;;;6047445;29;20277;-66
2022/10/12 05:07:41;;;;;;;4.07;1.50;;;6.50;99.90;;;;;;6046512;29;20380;-67
2022/10/12 05:10:47;;;;;;;1.85;1.65;;;6.50;99.90;;;;;;6046877;29;20302;-66
2022/10/12 05:13:51;;;;;;;2.70;1.90;;;6.50;99.90;;;;;;6047111;29;20294;-67
2022/10/12 05:16:56;;;;;;;1.85;1.75;;;6.50;99.90;;;;;;6046761;29;20298;-65
2022/10/12 05:20:01;;;;;;;1.65;1.60;;;6.60;99.90;;;;;;6050308;29;20562;-66
2022/10/12 05:23:07;;;;;;;2.13;1.50;;;6.50;99.90;;;;;;6047273;29;20470;-67
2022/10/12 05:26:13;;;;;;;7.43;1.80;;;6.40;99.90;;;;;;6027813;29;20298;-66
2022/10/12 05:29:19;;;;;;;1.20;1.20;;;6.40;99.90;;;;;;6028568;29;20278;-67
2022/10/12 05:32:24;;;;;;;2.70;1.48;;;6.40;99.90;;;;;;6027923;29;20306;-67
2022/10/12 05:35:30;;;;;;;1.58;1.48;;;6.50;99.90;;;;;;6027400;29;20482;-67
2022/10/12 05:38:34;;;;;;;1.58;1.55;;;6.40;99.90;;;;;;6028256;29;20282;-67
2022/10/12 05:41:40;;;;;;;7.32;1.80;;;6.40;99.90;;;;;;6027945;29;20298;-66
2022/10/12 05:44:45;;;;;;;4.73;1.77;;;6.30;99.90;;;;;;6028035;29;20274;-66
2022/10/12 05:47:50;;;;;;;1.77;1.67;;;6.40;99.90;;;;;;6041883;29;20298;-68
2022/10/12 05:53:52;;;;;;;5.65;1.75;;;6.50;99.90;;;;;;6438164;27;20965;-67
2022/10/12 05:56:57;;;;;;;9.00;1.60;;;6.50;99.90;;;;;;6380051;27;20301;-67
2022/10/12 06:00:02;;;;;;;2.35;1.75;;;6.50;99.90;;;;;;6357969;28;20564;-67
2022/10/12 06:03:15;;;;;;;10.18;1.58;;;6.50;99.90;;;;;;6357146;28;20581;-67
2022/10/12 06:06:23;;;;;;;3.65;1.45;;;6.60;99.90;;;;;;6356945;28;20297;-67
2022/10/12 06:09:30;;;;;;;3.15;1.52;;;6.60;99.90;;;;;;6357302;28;20286;-66
2022/10/12 06:12:35;;;;;;;7.65;1.70;;;6.60;99.90;;;;;;6357265;28;20471;-66
2022/10/12 06:15:40;;;;;;;1.50;1.40;;;6.60;99.90;;;;;;6357151;28;20281;-67
2022/10/12 06:18:46;;;;;;;6.53;1.60;;;6.70;99.90;;;;;;6357051;28;20269;-67
2022/10/12 06:21:50;;;;;;;5.00;1.58;;;6.70;99.90;;;;;;6356797;28;20312;-67
2022/10/12 06:24:57;;;;;;;2.20;1.73;;;6.80;99.90;;;;;;6376770;28;20260;-66
2022/10/12 06:28:02;;;;;;;8.52;2.30;;;6.80;99.90;;;;;;6382016;28;20288;-66
2022/10/12 06:31:07;;;;;;;1.95;1.80;;;6.80;99.90;;;;;;6381972;28;20288;-66
2022/10/12 06:34:14;;;;;;;6.95;1.80;;;6.80;99.90;;;;;;6382352;28;20441;-66
2022/10/12 06:37:19;;;;;;;4.70;1.98;;;6.80;99.90;;;;;;6381550;28;20292;-66
2022/10/12 06:40:45;;;;;;;4.13;1.80;;;6.80;99.90;;;;;;6381515;28;20288;-66
2022/10/12 06:43:50;;;;;;;2.10;1.90;;;6.90;99.90;;;;;;6382267;28;20442;-66
2022/10/12 06:46:55;;;;;;;5.50;1.63;;;6.90;99.90;;;;;;6381132;28;20288;-66
2022/10/12 06:50:00;;;;;;;4.38;1.65;;;6.90;99.90;;;;;;6382048;28;20273;-66
2022/10/12 06:53:05;;;;;;;8.15;1.85;;;6.90;99.90;;;;;;6380401;28;20297;-66
2022/10/12 06:56:13;;;;;;;2.55;1.80;;;6.90;99.90;;;;;;6381365;28;20292;-68
2022/10/12 06:59:18;;;;;;;1.75;1.60;;;7.00;99.90;;;;;;6381210;28;20260;-66
2022/10/12 07:02:22;;;;;;;3.40;2.00;;;7.00;99.90;;;;;;6380291;28;20305;-67
2022/10/12 07:05:27;;;;;;;3.72;1.88;;;7.00;99.90;;;;;;6363752;28;20269;-66
2022/10/12 07:08:32;;;;;;;5.85;1.70;;;7.00;99.90;;;;;;6364698;28;20269;-67
2022/10/12 07:11:39;;;;;;;3.03;1.60;;;7.10;99.90;;;;;;6364010;28;20288;-67
2022/10/12 07:14:44;;;;;;;1.52;1.42;;;7.10;99.90;;;;;;6364571;28;20269;-67
2022/10/12 07:17:49;;;;;;;6.70;1.90;;;7.20;99.90;;;;;;6363794;28;20482;-67
2022/10/12 07:20:57;;;;;;;4.78;1.80;;;7.30;99.90;;;;;;6363456;28;20288;-67
2022/10/12 07:24:02;;;;;;;2.97;1.65;;;7.30;99.90;;;;;;6363889;28;20269;-67
2022/10/12 07:27:11;;;;;;;5.97;1.95;;;7.30;99.90;;;;;;6363839;28;20296;-67
2022/10/12 07:30:16;;;;;;;4.15;1.83;;;7.30;99.90;;;;;;6364233;28;20261;-67
2022/10/12 07:33:20;;;;;;;4.40;1.92;;;7.40;99.90;;;;;;6362928;28;20293;-67
2022/10/12 07:36:25;;;;;;;6.65;2.10;;;7.50;99.90;;;;;;6362887;28;20300;-67
2022/10/12 07:39:55;;;;;;;2.85;1.80;;;7.40;99.90;;;;;;6363993;28;20269;-66
2022/10/12 07:43:02;;;;;;;3.13;1.80;;;7.50;99.90;;;;;;6363280;28;20300;-67
2022/10/12 07:46:19;;;;;;;1.98;1.88;;;7.50;99.90;;;;;;6363347;28;20293;-67
2022/10/12 07:49:24;;;;;;;1.55;1.55;;;7.60;99.90;;;;;;6363795;28;20265;-67
2022/10/12 07:52:31;;;;;;;2.47;1.77;;;7.60;99.90;;;;;;6362478;28;20308;-67
2022/10/12 07:55:36;;;;;;;3.40;1.80;;;7.60;99.90;;;;;;6363292;28;20265;-67
2022/10/12 07:58:42;;;;;;;5.28;1.80;;;7.70;99.90;;;;;;6363926;28;20261;-67
2022/10/12 08:01:47;;;;;;;6.03;1.48;;;7.70;99.90;;;;;;6362697;28;20479;-67
2022/10/12 08:04:52;;;;;;;1.77;1.67;;;7.70;99.90;;;;;;6362970;28;20577;-67
2022/10/12 08:07:59;;;;;;;1.95;1.50;;;7.70;99.90;;;;;;6362792;28;20293;-67
2022/10/12 08:11:04;;;;;;;2.28;1.77;;;7.80;99.90;;;;;;6362635;28;20293;-67
2022/10/12 08:14:16;;;;;;;4.75;1.50;;;7.80;99.90;;;;;;6362789;28;20284;-67
2022/10/12 08:17:20;;;;;;;3.35;1.58;;;7.90;99.90;;;;;;6362326;28;20294;-67
2022/10/12 08:20:25;;;;;;;2.42;2.22;;;7.90;99.90;;;;;;6362508;28;20261;-67
2022/10/12 08:23:30;;;;;;;4.80;1.40;;;7.90;99.90;;;;;;6362639;28;20318;-67
2022/10/12 08:26:35;;;;;;;2.50;1.40;;;7.90;99.90;;;;;;6362093;28;20297;-66
2022/10/12 08:29:41;;;;;;;3.63;1.77;;;7.90;99.90;;;;;;6362843;28;20269;-66
2022/10/12 08:32:46;;;;;;;3.08;1.60;;;8.00;99.90;;;;;;6361807;28;20293;-66
2022/10/12 08:35:51;;;;;;;4.03;1.20;;;8.00;99.90;;;;;;6362246;28;20289;-67
2022/10/12 08:38:56;;;;;;;1.50;1.40;;;8.00;99.90;;;;;;6362263;28;20264;-67
2022/10/12 08:42:14;;;;;;;2.75;1.73;;;8.00;99.90;;;;;;6361640;28;20639;-67
2022/10/12 08:45:41;;;;;;;4.40;1.60;;;8.00;99.90;;;;;;6361978;28;20281;-67
2022/10/12 08:48:50;;;;;;;1.50;1.40;;;8.10;99.90;;;;;;6361981;28;20265;-66
2022/10/12 08:51:59;;;;;;;1.20;1.20;;;8.10;99.90;;;;;;6361445;28;20516;-66
2022/10/12 08:55:17;;;;;;;1.60;1.33;;;8.20;99.90;;;;;;6361770;28;20285;-66
2022/10/12 08:58:25;;;;;;;3.70;1.60;;;8.20;99.90;;;;;;6361226;28;20265;-66
2022/10/12 09:01:37;;;;;;;1.60;1.55;;;8.30;99.90;;;;;;6343507;28;20588;-66
2022/10/12 09:04:51;;;;;;;1.77;1.30;;;8.20;99.90;;;;;;6361423;28;20268;-66
2022/10/12 09:08:00;;;;;;;1.90;1.70;;;8.30;99.90;;;;;;6361410;28;20289;-66
2022/10/12 09:11:22;;;;;;;2.05;1.70;;;8.40;99.90;;;;;;6361486;28;20297;-66
2022/10/12 09:14:31;;;;;;;3.92;1.85;;;8.40;99.90;;;;;;6361613;28;20371;-66
2022/10/12 09:17:40;;;;;;;2.80;2.20;;;8.30;99.90;;;;;;6361018;28;20281;-67
2022/10/12 09:20:49;;;;;;;7.43;1.98;;;8.40;99.90;;;;;;6361031;28;20605;-66
2022/10/12 09:23:56;;;;;;;6.25;1.80;;;8.40;99.90;;;;;;6361477;28;20269;-66
2022/10/12 09:27:11;;;;;;;1.50;1.50;;;8.40;99.90;;;;;;6360254;28;20292;-66
2022/10/12 09:30:20;;;;;;;2.20;1.77;;;8.50;99.90;;;;;;6360270;28;20269;-67
2022/10/12 09:33:29;;;;;;;3.08;1.88;;;8.50;99.90;;;;;;6361331;28;20288;-66
2022/10/12 09:36:37;;;;;;;3.33;2.17;;;8.50;99.90;;;;;;6360722;28;20288;-66
2022/10/12 09:39:42;;;;;;;3.33;1.75;;;8.60;99.90;;;;;;6361471;28;20272;-66
2022/10/12 09:42:47;;;;;;;1.80;1.70;;;8.50;99.90;;;;;;6361048;28;20309;-66
2022/10/12 09:45:52;;;;;;;2.25;1.65;;;8.50;99.90;;;;;;6360895;28;20300;-66
2022/10/12 09:49:00;;;;;;;1.48;1.38;;;8.60;99.90;;;;;;6360979;28;20261;-66
2022/10/12 09:52:04;;;;;;;2.83;1.63;;;8.60;99.90;;;;;;6359687;28;20357;-66
2022/10/12 09:55:25;;;;;;;1.40;1.40;;;8.70;99.90;;;;;;6361058;28;20289;-67
2022/10/12 09:58:43;;;;;;;1.30;1.20;;;8.80;99.90;;;;;;6359799;28;20269;-67
2022/10/12 10:01:59;;;;;;;2.03;1.45;;;8.90;99.90;;;;;;6347675;28;20494;-67
2022/10/12 10:05:25;;;;;;;1.60;1.40;;;8.90;99.90;;;;;;6335771;28;20275;-68
2022/10/12 10:08:42;;;;;;;1.25;1.25;;;8.90;99.90;;;;;;6335021;28;20270;-66
2022/10/12 10:11:48;;;;;;;6.88;1.25;;;9.00;99.90;;;;;;6335244;28;20286;-67
2022/10/12 10:14:56;;;;;;;1.40;1.40;;;9.10;99.90;;;;;;6335057;28;20470;-65
2022/10/12 10:18:04;;;;;;;3.00;1.20;;;9.10;99.90;;;;;;6335190;28;20285;-66
2022/10/12 10:21:15;;;;;;;2.00;1.23;;;9.20;99.90;;;;;;6334987;28;20306;-66
2022/10/12 10:24:28;;;;;;;2.00;1.38;;;9.30;99.90;;;;;;6335732;28;20266;-66
2022/10/12 10:27:36;;;;;;;3.53;1.27;;;9.30;99.90;;;;;;6335104;28;20614;-67
2022/10/12 10:30:41;;;;;;;3.05;1.40;;;9.30;99.90;;;;;;6335502;28;20325;-67
2022/10/12 10:34:16;;;;;;;1.45;1.45;;;9.30;99.90;;;;;;6335232;28;20263;-67
2022/10/12 10:37:23;;;;;;;1.60;1.50;;;9.40;99.90;;;;;;6335232;28;20305;-67
2022/10/12 10:40:30;;;;;;;4.45;1.73;;;9.40;99.90;;;;;;6339440;28;20266;-67
2022/10/12 10:43:36;;;;;;;2.13;1.10;;;9.50;99.90;;;;;;6340446;28;20270;-67
2022/10/12 10:46:41;;;;;;;1.17;1.17;;;9.50;99.90;;;;;;6339725;28;20309;-67
2022/10/12 10:49:48;;;;;;;2.58;0.90;;;9.50;99.90;;;;;;6339814;28;20267;-67
2022/10/12 10:52:57;;;;;;;1.00;1.00;;;9.80;99.90;;;;;;6339064;28;20305;-66
2022/10/12 10:56:05;;;;;;;2.55;1.10;;;9.90;99.90;;;;;;6339570;28;20582;-66
2022/10/12 10:59:19;;;;;;;3.60;1.30;;;9.90;99.90;;;;;;6340205;28;20262;-67
2022/10/12 11:02:33;;;;;;;4.70;1.15;;;9.80;99.90;;;;;;6339668;28;20507;-67
2022/10/12 11:05:44;;;;;;;1.00;1.00;;;9.80;99.90;;;;;;6339343;28;20476;-67
2022/10/12 11:09:05;;;;;;;0.90;0.90;;;9.80;99.90;;;;;;6339556;28;20468;-67
2022/10/12 11:12:19;;;;;;;1.17;1.17;;;9.90;99.90;;;;;;6339067;28;20301;-67
2022/10/12 11:15:31;;;;;;;1.70;1.13;;;10.00;99.90;;;;;;6338381;28;20294;-67
2022/10/12 11:18:41;;;;;;;1.50;1.48;;;10.10;99.90;;;;;;6339499;28;20270;-67
2022/10/12 11:21:50;;;;;;;1.10;1.10;;;10.10;99.90;;;;;;6338854;28;20289;-67
2022/10/12 11:25:03;;;;;;;5.53;0.80;;;10.30;99.90;;;;;;6338995;28;20261;-66
2022/10/12 11:28:14;;;;;;;1.83;1.10;;;10.40;99.90;;;;;;6338757;28;20289;-67
2022/10/12 11:31:24;;;;;;;1.20;1.20;;;10.50;99.90;;;;;;6338348;28;20293;-67
2022/10/12 11:34:32;;;;;;;1.00;1.00;;;10.50;99.80;;;;;;6339159;28;20274;-66
2022/10/12 11:37:42;;;;;;;0.80;0.80;;;10.50;99.90;;;;;;6337977;28;20289;-67
2022/10/12 11:40:54;;;;;;;1.20;0.90;;;10.60;99.90;;;;;;6338563;28;20293;-65
2022/10/12 11:44:22;;;;;;;3.75;0.82;;;10.60;99.90;;;;;;6339086;28;20266;-66
2022/10/12 11:47:38;;;;;;;1.90;1.00;;;10.70;99.20;;;;;;6354098;28;20469;-67
2022/10/12 11:50:46;;;;;;;0.90;0.90;;;10.70;99.30;;;;;;6337618;28;20289;-67
2022/10/12 11:53:59;;;;;;;0.70;0.70;;;10.80;99.50;;;;;;6338373;28;20270;-67
2022/10/12 11:57:12;;;;;;;0.60;0.60;;;10.80;98.10;;;;;;6337780;28;20593;-66
2022/10/12 12:00:21;;;;;;;0.60;0.60;;;10.80;97.00;;;;;;6338444;28;20270;-66
2022/10/12 12:03:31;;;;;;;0.93;0.93;;;10.90;96.40;;;;;;6337572;28;20270;-67
2022/10/12 12:06:55;;;;;;;1.55;0.70;;;10.90;95.90;;;;;;6338007;28;20313;-67
2022/10/12 12:10:00;;;;;;;0.70;0.70;;;10.90;97.20;;;;;;6337673;28;20270;-66
2022/10/12 12:13:21;;;;;;;2.00;0.77;;;10.90;97.30;;;;;;6337746;28;20293;-67
2022/10/12 12:16:33;;;;;;;2.03;0.90;;;10.90;97.70;;;;;;6337157;28;20586;-66
2022/10/12 12:19:39;;;;;;;0.60;0.60;;;10.90;97.30;;;;;;6337733;28;20261;-67
2022/10/12 12:22:50;;;;;;;0.70;0.70;;;10.90;96.80;;;;;;6337245;28;20467;-67
2022/10/12 12:26:21;;;;;;;1.08;1.05;;;11.00;97.50;;;;;;6337678;28;20290;-66
2022/10/12 12:29:29;;;;;;;2.83;1.00;;;10.90;97.70;;;;;;6319987;28;20445;-66
2022/10/12 12:32:47;;;;;;;0.82;0.82;;;10.90;97.80;;;;;;6337492;28;20289;-67
2022/10/12 12:35:55;;;;;;;2.05;0.85;;;10.90;98.10;;;;;;6336828;28;20298;-66
2022/10/12 12:39:01;;;;;;;1.08;1.08;;;11.00;97.90;;;;;;6337745;28;20274;-66
2022/10/12 12:42:08;;;;;;;1.00;1.00;;;11.00;97.80;;;;;;6337003;28;20502;-67
2022/10/12 12:45:55;;;;;;;1.17;0.80;;;11.00;98.50;;;;;;6337085;28;20445;-67
2022/10/12 12:49:02;;;;;;;0.70;0.70;;;11.00;97.40;;;;;;6283684;28;20275;-66
2022/10/12 12:52:14;;;;;;;0.70;0.70;;;11.00;97.20;;;;;;6260707;28;20307;-67
2022/10/12 12:56:00;;;;;;;4.22;0.88;;;11.00;97.80;;;;;;6259322;28;20272;-66
2022/10/12 12:59:50;;;;;;;0.90;0.90;;;11.00;98.70;;;;;;6259828;28;20291;-66
2022/10/12 13:03:34;;;;;;;1.23;0.80;;;11.00;98.20;;;;;;6276456;28;20287;-66
2022/10/12 13:07:10;;;;;;;0.65;0.65;;;10.90;98.60;;;;;;6282845;28;20299;-67
2022/10/12 13:10:27;;;;;;;0.73;0.70;;;10.90;98.80;;;;;;6284362;28;20547;-67
2022/10/12 13:13:50;;;;;;;0.85;0.77;;;11.00;98.10;;;;;;6282986;28;20275;-66
2022/10/12 13:17:25;;;;;;;3.85;0.80;;;11.00;97.90;;;;;;6270344;28;20291;-67
2022/10/12 13:20:46;;;;;;;1.35;0.98;;;11.10;97.90;;;;;;6325295;28;20311;-66
2022/10/12 13:23:56;;;;;;;0.88;0.88;;;11.00;98.20;;;;;;6336642;28;20262;-66
2022/10/12 13:27:13;;;;;;;0.70;0.70;;;11.10;98.70;;;;;;6335988;28;20304;-67
2022/10/12 13:30:30;;;;;;;1.05;0.88;;;11.10;97.00;;;;;;6335871;28;20266;-66
2022/10/12 13:33:40;;;;;;;0.98;0.75;;;11.20;97.60;;;;;;6336319;28;20261;-67
2022/10/12 13:36:53;;;;;;;2.45;1.00;;;11.10;99.50;;;;;;6335961;28;20585;-66
2022/10/12 13:39:57;;;;;;;0.80;0.80;;;11.10;99.70;;;;;;6336326;28;20265;-66
2022/10/12 13:43:32;;;;;;;2.67;0.90;;;11.10;98.20;;;;;;6351676;28;20472;-66
2022/10/12 13:46:41;;;;;;;4.28;1.13;;;11.10;98.30;;;;;;6335724;28;20301;-66
2022/10/12 13:49:46;;;;;;;1.00;1.00;;;11.10;97.70;;;;;;6336202;28;20261;-67
2022/10/12 13:52:55;;;;;;;3.53;0.80;;;11.10;97.70;;;;;;6335072;28;20494;-67
2022/10/12 13:56:04;;;;;;;5.25;1.00;;;11.00;97.90;;;;;;6335220;28;20458;-67
2022/10/12 13:59:17;;;;;;;2.63;1.00;;;11.10;97.90;;;;;;6336098;28;20274;-67
2022/10/12 14:02:25;;;;;;;5.18;3.95;;;11.00;98.00;;;;;;6335278;28;20298;-67
2022/10/12 14:05:32;;;;;;;9.32;7.45;;;11.00;99.00;;;;;;6350524;28;20261;-68
2022/10/12 14:08:38;;;;;;;15.52;8.98;;;10.90;99.70;;;;;;6335641;28;20265;-67
2022/10/12 14:11:43;;;;;;;3.08;2.58;;;11.00;98.90;;;;;;6335382;28;20305;-67
2022/10/12 14:14:49;;;;;;;4.55;1.38;;;11.00;99.50;;;;;;6339498;28;20262;-67
2022/10/12 14:17:53;;;;;;;1.95;1.05;;;11.00;99.20;;;;;;6340556;28;20313;-67
2022/10/12 14:21:17;;;;;;;2.20;1.00;;;10.90;99.00;;;;;;6340167;28;20297;-67
2022/10/12 14:24:24;;;;;;;2.15;1.00;;;10.90;99.90;;;;;;6340218;28;20258;-67
2022/10/12 14:27:38;;;;;;;1.00;1.00;;;10.90;99.90;;;;;;6340075;28;20468;-67
2022/10/12 14:30:52;;;;;;;1.65;1.10;;;10.80;99.90;;;;;;6340036;28;20322;-67
2022/10/12 14:34:45;;;;;;;1.40;1.00;;;10.80;99.90;;;;;;6340256;28;20265;-67
2022/10/12 14:37:53;;;;;;;1.00;1.00;;;10.80;99.70;;;;;;6335749;28;20293;-67
2022/10/12 14:41:34;;;;;;;4.30;1.20;;;10.80;99.90;;;;;;6339910;28;20603;-67
2022/10/12 14:44:42;;;;;;;2.10;1.13;;;10.80;99.90;;;;;;6339748;28;20265;-67
2022/10/12 14:47:48;;;;;;;0.80;0.80;;;10.70;99.70;;;;;;6339589;28;20303;-67
2022/10/12 14:50:53;;;;;;;2.50;1.20;;;10.70;99.70;;;;;;6339438;28;20285;-67
2022/10/12 14:54:01;;;;;;;5.18;1.67;;;10.70;99.80;;;;;;6339843;28;20270;-67
2022/10/12 14:57:14;;;;;;;1.40;1.10;;;10.70;99.60;;;;;;6339658;28;20459;-68
2022/10/12 15:00:21;;;;;;;2.70;1.20;;;10.60;99.90;;;;;;6339173;28;20453;-67
2022/10/12 15:03:26;;;;;;;5.38;1.00;;;10.60;99.90;;;;;;6339665;28;20261;-67
2022/10/12 15:06:31;;;;;;;1.50;1.30;;;10.60;99.90;;;;;;6339400;28;20290;-67
2022/10/12 15:09:35;;;;;;;6.60;1.27;;;10.60;99.90;;;;;;6339495;28;20270;-67
2022/10/12 15:12:42;;;;;;;7.13;1.33;;;10.50;99.90;;;;;;6338883;28;20481;-67
2022/10/12 15:15:49;;;;;;;6.82;1.30;;;10.40;99.90;;;;;;6339260;28;20281;-68
2022/10/12 15:18:54;;;;;;;2.90;1.48;;;10.30;99.90;;;;;;6339289;28;20290;-67
2022/10/12 15:21:59;;;;;;;3.70;1.95;;;10.20;99.90;;;;;;6338769;28;20450;-66
2022/10/12 15:25:18;;;;;;;4.38;1.95;;;10.20;99.90;;;;;;6339039;28;20266;-67
2022/10/12 15:28:28;;;;;;;5.57;2.17;;;10.10;99.90;;;;;;6338154;28;20278;-67
2022/10/12 15:31:33;;;;;;;5.47;2.38;;;10.10;99.90;;;;;;6338291;28;20290;-67
2022/10/12 15:34:41;;;;;;;9.13;3.22;;;10.10;99.90;;;;;;6337513;28;20269;-68
2022/10/12 15:37:46;;;;;;;7.40;2.92;;;10.10;99.90;;;;;;6338521;28;20293;-68
2022/10/12 15:40:52;;;;;;;3.60;2.88;;;10.00;99.90;;;;;;6338339;28;20441;-68
2022/10/12 15:43:58;;;;;;;10.20;2.90;;;9.90;99.90;;;;;;6338501;28;20278;-66
2022/10/12 15:47:03;;;;;;;4.47;2.45;;;9.90;99.90;;;;;;6337931;28;20301;-66
2022/10/12 15:50:08;;;;;;;5.20;2.20;;;9.80;99.90;;;;;;6338686;28;20265;-66
2022/10/12 15:53:16;;;;;;;4.40;2.72;;;9.80;99.90;;;;;;6337272;28;20306;-66
2022/10/12 15:56:22;;;;;;;2.17;1.95;;;9.80;99.90;;;;;;6337687;28;20289;-66
2022/10/12 15:59:28;;;;;;;3.38;2.38;;;9.80;99.90;;;;;;6338070;28;20285;-67
2022/10/12 16:02:34;;;;;;;3.17;1.70;;;9.70;99.90;;;;;;6338030;28;20286;-67
2022/10/12 16:05:39;;;;;;;2.13;2.03;;;9.70;99.90;;;;;;6337766;28;20301;-67
2022/10/12 16:08:43;;;;;;;2.45;2.25;;;9.60;99.90;;;;;;6338406;28;20270;-67
2022/10/12 16:11:49;;;;;;;1.90;1.85;;;9.60;99.90;;;;;;6337938;28;20471;-67
2022/10/12 16:14:55;;;;;;;2.00;1.80;;;9.50;99.90;;;;;;6338393;28;20421;-67
2022/10/12 16:18:01;;;;;;;5.78;2.00;;;9.50;99.90;;;;;;6337866;28;20297;-67
2022/10/12 16:21:06;;;;;;;4.38;2.35;;;9.50;99.90;;;;;;6337345;28;20294;-67
2022/10/12 16:24:11;;;;;;;2.00;1.90;;;9.40;99.90;;;;;;6337926;28;20254;-67
2022/10/12 16:27:17;;;;;;;2.22;2.10;;;9.40;99.90;;;;;;6336902;28;20301;-67
2022/10/12 16:30:24;;;;;;;2.63;1.80;;;9.40;99.90;;;;;;6337453;28;20270;-67
2022/10/12 16:33:29;;;;;;;1.65;1.65;;;9.30;99.90;;;;;;6337911;28;20265;-66
2022/10/12 16:36:34;;;;;;;2.25;2.13;;;9.30;99.90;;;;;;6335929;28;20305;-66
2022/10/12 16:39:39;;;;;;;2.20;2.05;;;9.20;99.90;;;;;;6337456;28;20593;-66